createdAt,value
2018-07-03T00:02:05.999Z,0.80
2018-07-03T00:04:34.433Z,0.70
2018-07-03T00:07:02.906Z,0.70
2018-07-03T00:09:31.396Z,0.60
2018-07-03T00:11:59.908Z,0.72
2018-07-03T00:14:28.336Z,0.75
2018-07-03T00:17:02.102Z,0.78
2018-07-03T00:19:30.541Z,0.88
2018-07-03T00:21:59.040Z,1.00
2018-07-03T00:24:27.527Z,0.90
2018-07-03T00:26:56.006Z,0.82
2018-07-03T00:29:24.539Z,1.00
2018-07-03T00:31:52.984Z,0.70
2018-07-03T00:34:21.418Z,0.85
2018-07-03T00:36:49.922Z,0.70
2018-07-03T00:39:18.360Z,0.72
2018-07-03T00:41:46.805Z,0.72
2018-07-03T00:44:15.220Z,0.70
2018-07-03T00:46:43.691Z,0.90
2018-07-03T00:49:12.141Z,1.10
2018-07-03T00:51:40.619Z,0.75
2018-07-03T00:54:09.232Z,0.68
2018-07-03T00:56:37.387Z,0.68
2018-07-03T00:59:05.880Z,0.62
2018-07-03T01:01:34.360Z,0.95
2018-07-03T01:04:02.813Z,0.70
2018-07-03T01:06:31.370Z,0.70
2018-07-03T01:09:00.318Z,0.80
2018-07-03T01:11:28.857Z,0.85
2018-07-03T01:13:57.668Z,1.10
2018-07-03T01:16:26.192Z,0.90
2018-07-03T01:18:54.627Z,0.90
2018-07-03T01:21:23.096Z,0.80
2018-07-03T01:23:51.565Z,0.70
2018-07-03T01:26:20.057Z,0.70
2018-07-03T01:28:48.510Z,0.50
2018-07-03T01:31:16.960Z,0.70
2018-07-03T01:33:45.419Z,0.60
2018-07-03T01:36:14.829Z,0.95
2018-07-03T01:38:43.272Z,0.93
2018-07-03T01:41:11.430Z,0.55
2018-07-03T01:43:39.889Z,1.27
2018-07-03T01:46:08.368Z,0.90
2018-07-03T01:48:36.830Z,1.00
2018-07-03T01:51:05.275Z,0.90
2018-07-03T01:53:33.769Z,0.70
2018-07-03T01:56:02.218Z,1.05
2018-07-03T01:58:30.699Z,0.82
2018-07-03T02:00:59.149Z,0.80
2018-07-03T02:03:27.700Z,0.70
2018-07-03T02:05:56.164Z,0.80
2018-07-03T02:08:24.634Z,0.88
2018-07-03T02:10:53.074Z,0.80
2018-07-03T02:13:21.526Z,0.72
2018-07-03T02:15:49.962Z,0.80
2018-07-03T02:18:18.396Z,0.95
2018-07-03T02:20:46.825Z,0.82
2018-07-03T02:23:15.309Z,0.88
2018-07-03T02:25:43.733Z,1.00
2018-07-03T02:28:12.236Z,0.88
2018-07-03T02:30:40.669Z,0.75
2018-07-03T02:33:09.149Z,0.68
2018-07-03T02:35:37.574Z,0.70
2018-07-03T02:38:06.083Z,0.80
2018-07-03T02:40:34.545Z,0.93
2018-07-03T02:43:03.013Z,0.88
2018-07-03T02:45:31.494Z,0.80
2018-07-03T02:47:59.997Z,0.78
2018-07-03T02:50:28.442Z,0.90
2018-07-03T02:52:57.093Z,0.90
2018-07-03T02:55:25.514Z,0.85
2018-07-03T02:57:53.993Z,1.22
2018-07-03T03:00:22.477Z,1.00
2018-07-03T03:02:50.946Z,1.30
2018-07-03T03:05:19.396Z,1.15
2018-07-03T03:07:47.858Z,0.95
2018-07-03T03:10:16.306Z,0.90
2018-07-03T03:12:44.742Z,0.98
2018-07-03T03:15:13.264Z,0.90
2018-07-03T03:17:41.703Z,0.88
2018-07-03T03:20:10.193Z,0.98
2018-07-03T03:22:38.653Z,1.00
2018-07-03T03:25:07.148Z,0.90
2018-07-03T03:27:35.600Z,0.90
2018-07-03T03:30:04.714Z,0.70
2018-07-03T03:32:33.153Z,0.65
2018-07-03T03:35:01.597Z,0.80
2018-07-03T03:37:30.036Z,1.00
2018-07-03T03:39:58.537Z,1.32
2018-07-03T03:42:26.953Z,0.80
2018-07-03T03:44:55.428Z,0.80
2018-07-03T03:47:23.572Z,0.90
2018-07-03T03:49:52.048Z,0.90
2018-07-03T03:52:20.522Z,1.00
2018-07-03T03:54:49.013Z,0.82
2018-07-03T03:57:17.453Z,2.08
2018-07-03T03:59:45.870Z,0.90
2018-07-03T04:02:14.394Z,0.80
2018-07-03T04:04:42.790Z,0.90
2018-07-03T04:07:11.350Z,0.80
2018-07-03T04:09:39.788Z,0.90
2018-07-03T04:12:08.533Z,0.85
2018-07-03T04:14:36.972Z,1.27
2018-07-03T04:17:05.718Z,0.95
2018-07-03T04:19:34.156Z,0.98
2018-07-03T04:22:02.630Z,0.90
2018-07-03T04:24:31.085Z,0.80
2018-07-03T04:26:59.540Z,0.90
2018-07-03T04:29:27.688Z,1.02
2018-07-03T04:31:56.127Z,0.72
2018-07-03T04:34:24.550Z,0.80
2018-07-03T04:36:53.023Z,0.70
2018-07-03T04:39:21.462Z,0.80
2018-07-03T04:41:49.904Z,0.80
2018-07-03T04:44:18.330Z,0.85
2018-07-03T04:46:46.841Z,0.90
2018-07-03T04:49:15.274Z,1.10
2018-07-03T04:51:43.769Z,0.82
2018-07-03T04:54:12.269Z,0.80
2018-07-03T04:56:40.778Z,0.82
2018-07-03T04:59:09.228Z,0.80
2018-07-03T05:01:37.671Z,0.90
2018-07-03T05:04:06.189Z,1.10
2018-07-03T05:06:34.638Z,0.72
2018-07-03T05:09:03.214Z,0.78
2018-07-03T05:11:31.677Z,0.90
2018-07-03T05:14:00.149Z,0.70
2018-07-03T05:16:28.602Z,0.70
2018-07-03T05:18:57.073Z,0.70
2018-07-03T05:21:25.575Z,0.80
2018-07-03T05:23:54.072Z,0.80
2018-07-03T05:26:22.523Z,0.53
2018-07-03T05:28:50.969Z,0.90
2018-07-03T05:31:19.474Z,1.45
2018-07-03T05:33:47.918Z,0.70
2018-07-03T05:36:16.453Z,0.80
2018-07-03T05:38:44.962Z,0.72
2018-07-03T05:41:13.447Z,0.70
2018-07-03T05:43:41.909Z,0.90
2018-07-03T05:46:10.440Z,1.00
2018-07-03T05:48:38.890Z,1.40
2018-07-03T05:51:07.354Z,1.37
2018-07-03T05:53:35.823Z,1.10
2018-07-03T05:56:04.336Z,1.07
2018-07-03T05:58:32.769Z,1.12
2018-07-03T06:01:01.233Z,0.95
2018-07-03T06:03:29.681Z,1.30
2018-07-03T06:05:58.164Z,1.12
2018-07-03T06:08:26.610Z,1.05
2018-07-03T06:10:55.451Z,1.00
2018-07-03T06:13:23.912Z,1.10
2018-07-03T06:15:52.380Z,0.90
2018-07-03T06:18:20.858Z,0.75
2018-07-03T06:20:49.332Z,1.12
2018-07-03T06:23:17.480Z,1.00
2018-07-03T06:25:46.017Z,0.95
2018-07-03T06:28:14.484Z,1.02
2018-07-03T06:30:43.115Z,1.15
2018-07-03T06:33:11.700Z,0.80
2018-07-03T06:35:40.027Z,1.05
2018-07-03T06:38:08.461Z,0.80
2018-07-03T06:40:37.061Z,0.65
2018-07-03T06:43:05.525Z,0.60
2018-07-03T06:45:33.995Z,0.70
2018-07-03T06:48:02.424Z,0.72
2018-07-03T06:50:30.897Z,0.60
2018-07-03T06:52:59.433Z,0.60
2018-07-03T06:55:27.921Z,0.60
2018-07-03T06:57:56.407Z,0.57
2018-07-03T07:00:24.904Z,0.50
2018-07-03T07:02:53.353Z,1.00
2018-07-03T07:05:21.850Z,0.60
2018-07-03T07:07:50.288Z,0.50
2018-07-03T07:10:18.793Z,0.60
2018-07-03T07:12:47.261Z,0.60
2018-07-03T07:15:15.710Z,0.60
2018-07-03T07:17:44.185Z,0.57
2018-07-03T07:20:12.623Z,0.82
2018-07-03T07:22:41.121Z,0.50
2018-07-03T07:25:09.189Z,0.50
2018-07-03T07:27:37.735Z,0.70
2018-07-03T07:30:06.532Z,0.65
2018-07-03T07:32:35.054Z,0.60
2018-07-03T07:35:03.553Z,0.40
2018-07-03T07:37:32.056Z,0.55
2018-07-03T07:40:00.516Z,0.40
2018-07-03T07:42:29.009Z,0.50
2018-07-03T07:44:57.440Z,0.47
2018-07-03T07:47:25.895Z,0.50
2018-07-03T07:49:54.317Z,0.40
2018-07-03T07:52:22.860Z,0.53
2018-07-03T07:54:51.367Z,0.45
2018-07-03T07:57:19.848Z,0.40
2018-07-03T07:59:48.267Z,0.50
2018-07-03T08:02:16.788Z,0.40
2018-07-03T08:04:45.222Z,1.55
2018-07-03T08:07:13.696Z,0.50
2018-07-03T08:09:42.123Z,0.37
2018-07-03T08:12:10.616Z,0.33
2018-07-03T08:14:39.097Z,0.35
2018-07-03T08:17:07.541Z,0.40
2018-07-03T08:19:36.026Z,0.50
2018-07-03T08:22:04.549Z,0.30
2018-07-03T08:24:32.984Z,0.50
2018-07-03T08:27:01.442Z,0.50
2018-07-03T08:29:29.894Z,0.40
2018-07-03T08:31:58.345Z,0.35
2018-07-03T08:34:26.809Z,0.40
2018-07-03T08:36:55.413Z,0.37
2018-07-03T08:39:23.876Z,0.30
2018-07-03T08:41:52.387Z,0.40
2018-07-03T08:44:20.809Z,0.40
2018-07-03T08:46:49.340Z,0.40
2018-07-03T08:49:17.777Z,0.95
2018-07-03T08:51:46.364Z,0.35
2018-07-03T08:54:15.098Z,0.40
2018-07-03T08:56:43.526Z,0.40
2018-07-03T08:59:11.977Z,0.35
2018-07-03T09:01:40.453Z,0.20
2018-07-03T09:04:08.905Z,0.30
2018-07-03T09:06:37.376Z,1.25
2018-07-03T09:09:08.524Z,0.23
2018-07-03T09:11:37.042Z,0.40
2018-07-03T09:14:06.073Z,0.37
2018-07-03T09:16:34.518Z,0.28
2018-07-03T09:19:03.009Z,0.23
2018-07-03T09:21:31.507Z,0.30
2018-07-03T09:23:59.961Z,0.40
2018-07-03T09:26:28.381Z,0.37
2018-07-03T09:28:56.830Z,0.28
2018-07-03T09:31:25.334Z,0.10
2018-07-03T09:33:53.791Z,0.20
2018-07-03T09:36:22.251Z,0.20
2018-07-03T09:38:50.722Z,0.37
2018-07-03T09:41:19.180Z,0.30
2018-07-03T09:43:47.653Z,0.28
2018-07-03T09:46:16.097Z,0.30
2018-07-03T09:48:44.646Z,0.30
2018-07-03T09:51:13.101Z,0.28
2018-07-03T09:53:41.685Z,0.28
2018-07-03T09:56:10.125Z,0.20
2018-07-03T09:58:38.656Z,0.20
2018-07-03T10:01:12.379Z,0.30
2018-07-03T10:03:40.877Z,0.30
2018-07-03T10:06:09.304Z,0.30
2018-07-03T10:08:37.760Z,0.30
2018-07-03T10:11:06.270Z,0.30
2018-07-03T10:13:34.744Z,0.30
2018-07-03T10:16:03.188Z,0.33
2018-07-03T10:18:31.657Z,0.30
2018-07-03T10:21:00.101Z,0.30
2018-07-03T10:23:28.552Z,0.55
2018-07-03T10:25:56.996Z,0.30
2018-07-03T10:28:25.441Z,0.40
2018-07-03T10:30:53.949Z,0.20
2018-07-03T10:33:22.469Z,0.30
2018-07-03T10:35:50.906Z,0.23
2018-07-03T10:38:19.365Z,0.30
2018-07-03T10:40:47.881Z,0.30
2018-07-03T10:43:16.328Z,0.28
2018-07-03T10:45:44.758Z,0.45
2018-07-03T10:48:13.245Z,0.37
2018-07-03T10:50:41.724Z,0.88
2018-07-03T10:53:10.222Z,0.80
2018-07-03T10:55:38.685Z,0.33
2018-07-03T10:58:07.153Z,0.37
2018-07-03T11:00:35.686Z,0.30
2018-07-03T11:03:04.159Z,0.45
2018-07-03T11:05:32.673Z,0.50
2018-07-03T11:08:01.131Z,0.70
2018-07-03T11:10:29.635Z,0.50
2018-07-03T11:12:58.071Z,0.50
2018-07-03T11:15:26.543Z,0.35
2018-07-03T11:17:54.968Z,0.47
2018-07-03T11:20:23.508Z,0.50
2018-07-03T11:22:51.960Z,0.50
2018-07-03T11:25:20.420Z,0.28
2018-07-03T11:27:49.050Z,0.62
2018-07-03T11:30:17.535Z,0.33
2018-07-03T11:32:45.961Z,0.33
2018-07-03T11:35:14.405Z,0.35
2018-07-03T11:37:42.920Z,0.40
2018-07-03T11:40:11.359Z,0.35
2018-07-03T11:42:39.788Z,0.37
2018-07-03T11:45:08.345Z,0.30
2018-07-03T11:47:36.769Z,0.40
2018-07-03T11:50:05.969Z,0.30
2018-07-03T11:52:34.412Z,0.30
2018-07-03T11:55:02.940Z,0.50
2018-07-03T11:57:31.625Z,0.20
2018-07-03T12:00:00.753Z,0.68
2018-07-03T12:02:29.231Z,0.30
2018-07-03T12:04:57.701Z,0.60
2018-07-03T12:07:26.231Z,0.30
2018-07-03T12:09:54.726Z,0.33
2018-07-03T12:12:23.173Z,0.30
2018-07-03T12:14:51.662Z,0.40
2018-07-03T12:17:20.116Z,0.40
2018-07-03T12:19:48.622Z,0.37
2018-07-03T12:22:17.083Z,1.02
2018-07-03T12:24:45.612Z,0.45
2018-07-03T12:27:14.101Z,0.40
2018-07-03T12:29:42.596Z,0.40
2018-07-03T12:32:11.055Z,1.15
2018-07-03T12:34:39.545Z,0.40
2018-07-03T12:37:07.984Z,0.50
2018-07-03T12:39:36.454Z,0.37
2018-07-03T12:42:04.976Z,0.50
2018-07-03T12:44:33.464Z,0.30
2018-07-03T12:47:01.955Z,0.47
2018-07-03T12:49:30.394Z,0.40
2018-07-03T12:51:58.861Z,0.37
2018-07-03T12:54:27.360Z,0.30
2018-07-03T12:56:55.803Z,0.50
2018-07-03T12:59:24.244Z,0.40
2018-07-03T13:01:52.760Z,0.35
2018-07-03T13:04:21.224Z,0.40
2018-07-03T13:06:49.764Z,0.47
2018-07-03T13:09:18.206Z,0.42
2018-07-03T13:11:46.977Z,0.33
2018-07-03T13:14:15.097Z,0.60
2018-07-03T13:16:43.580Z,0.40
2018-07-03T13:19:12.001Z,0.50
2018-07-03T13:21:40.472Z,0.30
2018-07-03T13:24:08.964Z,0.50
2018-07-03T13:26:37.119Z,0.40
2018-07-03T13:29:05.830Z,0.40
2018-07-03T13:31:34.307Z,0.78
2018-07-03T13:34:02.765Z,0.50
2018-07-03T13:36:31.253Z,0.40
2018-07-03T13:38:59.673Z,0.70
2018-07-03T13:41:28.165Z,0.70
2018-07-03T13:43:56.651Z,0.75
2018-07-03T13:46:25.147Z,0.70
2018-07-03T13:48:53.577Z,0.78
2018-07-03T13:51:22.053Z,1.10
2018-07-03T13:53:50.493Z,1.42
2018-07-03T13:56:18.936Z,0.82
2018-07-03T13:58:47.372Z,0.78
2018-07-03T14:01:15.837Z,0.98
2018-07-03T14:03:44.282Z,0.90
2018-07-03T14:06:12.761Z,0.80
2018-07-03T14:08:41.196Z,1.00
2018-07-03T14:11:10.056Z,1.00
2018-07-03T14:13:38.522Z,1.00
2018-07-03T14:16:06.680Z,1.20
2018-07-03T14:18:35.207Z,0.90
2018-07-03T14:21:03.736Z,0.82
2018-07-03T14:23:32.172Z,0.90
2018-07-03T14:26:00.638Z,1.62
2018-07-03T14:28:29.109Z,1.02
2018-07-03T14:30:57.561Z,1.30
2018-07-03T14:33:26.036Z,1.20
2018-07-03T14:35:54.523Z,1.20
2018-07-03T14:38:23.015Z,1.00
2018-07-03T14:40:51.521Z,1.30
2018-07-03T14:43:19.990Z,1.50
2018-07-03T14:45:48.507Z,1.55
2018-07-03T14:48:16.996Z,1.40
2018-07-03T14:50:45.152Z,1.57
2018-07-03T14:53:13.658Z,1.72
2018-07-03T14:55:42.101Z,1.70
2018-07-03T14:58:10.608Z,1.95
2018-07-03T15:00:39.068Z,2.12
2018-07-03T15:03:07.566Z,1.85
2018-07-03T15:05:36.035Z,2.12
2018-07-03T15:08:04.514Z,2.02
2018-07-03T15:10:32.973Z,2.47
2018-07-03T15:13:03.281Z,2.40
2018-07-03T15:15:31.733Z,2.40
2018-07-03T15:18:00.203Z,2.87
2018-07-03T15:20:28.696Z,2.90
2018-07-03T15:22:57.187Z,2.25
2018-07-03T15:25:25.633Z,2.20
2018-07-03T15:27:54.104Z,2.50
2018-07-03T15:30:22.529Z,3.40
2018-07-03T15:32:51.010Z,2.42
2018-07-03T15:35:19.469Z,3.02
2018-07-03T15:37:47.961Z,3.00
2018-07-03T15:40:16.500Z,2.90
2018-07-03T15:42:44.945Z,2.87
2018-07-03T15:45:14.601Z,3.20
2018-07-03T15:47:43.121Z,3.22
2018-07-03T15:50:12.411Z,2.52
2018-07-03T15:52:40.865Z,2.98
2018-07-03T15:55:10.035Z,2.90
2018-07-03T15:57:38.544Z,2.67
2018-07-03T16:00:10.141Z,2.85
2018-07-03T16:02:38.653Z,2.72
2018-07-03T16:05:19.461Z,2.30
2018-07-03T16:08:56.989Z,3.02
2018-07-03T16:11:25.473Z,2.50
2018-07-03T16:13:54.260Z,2.65
2018-07-03T16:16:22.905Z,2.62
2018-07-03T16:18:51.461Z,2.47
2018-07-03T16:21:19.908Z,2.30
2018-07-03T16:23:48.392Z,1.95
2018-07-03T16:26:16.825Z,2.25
2018-07-03T16:28:45.282Z,2.02
2018-07-03T16:31:13.720Z,1.82
2018-07-03T16:33:42.216Z,2.37
2018-07-03T16:36:10.661Z,1.90
2018-07-03T16:38:39.165Z,1.90
2018-07-03T16:41:07.944Z,2.08
2018-07-03T16:43:36.402Z,1.82
2018-07-03T16:46:04.880Z,1.87
2018-07-03T16:48:33.328Z,1.75
2018-07-03T16:51:01.786Z,2.35
2018-07-03T16:53:30.285Z,1.98
2018-07-03T16:55:58.739Z,1.85
2018-07-03T16:58:27.201Z,1.47
2018-07-03T17:00:55.612Z,1.70
2018-07-03T17:03:24.073Z,1.67
2018-07-03T17:05:52.508Z,1.30
2018-07-03T17:08:20.964Z,1.40
2018-07-03T17:10:49.417Z,1.80
2018-07-03T17:13:17.896Z,1.62
2018-07-03T17:15:46.345Z,1.90
2018-07-03T17:18:14.852Z,1.37
2018-07-03T17:20:43.363Z,1.32
2018-07-03T17:23:11.784Z,1.40
2018-07-03T17:25:40.352Z,1.40
2018-07-03T17:28:08.781Z,1.20
2018-07-03T17:30:37.258Z,1.20
2018-07-03T17:33:06.079Z,1.30
2018-07-03T17:35:34.547Z,1.62
2018-07-03T17:38:02.998Z,1.35
2018-07-03T17:40:42.560Z,1.27
2018-07-03T17:44:23.426Z,1.60
2018-07-03T17:46:51.848Z,1.40
2018-07-03T17:49:20.314Z,1.47
2018-07-03T17:51:48.742Z,1.70
2018-07-03T17:54:17.224Z,1.50
2018-07-03T17:56:45.657Z,1.50
2018-07-03T17:59:14.125Z,1.57
2018-07-03T18:01:42.566Z,1.45
2018-07-03T18:04:11.042Z,1.47
2018-07-03T18:06:39.488Z,1.40
2018-07-03T18:09:10.049Z,1.70
2018-07-03T18:11:38.493Z,1.47
2018-07-03T18:14:07.216Z,1.57
2018-07-03T18:16:35.741Z,1.45
2018-07-03T18:19:09.366Z,1.80
2018-07-03T18:21:37.892Z,1.40
2018-07-03T18:24:06.301Z,1.40
2018-07-03T18:26:34.761Z,1.55
2018-07-03T18:29:03.269Z,1.60
2018-07-03T18:31:31.718Z,1.40
2018-07-03T18:34:00.160Z,1.10
2018-07-03T18:36:28.705Z,1.30
2018-07-03T18:38:57.252Z,1.40
2018-07-03T18:41:25.725Z,1.60
2018-07-03T18:43:54.149Z,1.70
2018-07-03T18:46:22.683Z,1.52
2018-07-03T18:48:51.108Z,1.67
2018-07-03T18:51:19.666Z,1.70
2018-07-03T18:53:48.158Z,1.70
2018-07-03T18:56:16.667Z,1.92
2018-07-03T18:58:45.223Z,1.37
2018-07-03T19:01:13.835Z,1.50
2018-07-03T19:03:42.248Z,1.60
2018-07-03T19:06:10.725Z,2.10
2018-07-03T19:08:39.227Z,1.72
2018-07-03T19:11:07.969Z,1.57
2018-07-03T19:13:36.421Z,1.25
2018-07-03T19:16:04.925Z,1.80
2018-07-03T19:18:33.400Z,1.67
2018-07-03T19:21:01.893Z,1.60
2018-07-03T19:23:30.399Z,1.50
2018-07-03T19:25:58.914Z,1.60
2018-07-03T19:28:27.355Z,1.60
2018-07-03T19:30:55.877Z,1.50
2018-07-03T19:33:24.304Z,1.60
2018-07-03T19:35:52.820Z,1.90
2018-07-03T19:38:21.301Z,1.80
2018-07-03T19:40:49.822Z,1.85
2018-07-03T19:43:26.773Z,1.60
2018-07-03T19:45:56.825Z,1.80
2018-07-03T19:48:25.301Z,1.80
2018-07-03T19:50:54.165Z,1.92
2018-07-03T19:53:22.600Z,1.98
2018-07-03T19:55:52.281Z,1.77
2018-07-03T19:58:21.148Z,2.10
2018-07-03T20:00:50.676Z,2.50
2018-07-03T20:03:19.160Z,2.22
2018-07-03T20:05:47.669Z,2.00
2018-07-03T20:08:16.148Z,2.15
2018-07-03T20:10:44.630Z,2.45
2018-07-03T20:13:14.695Z,2.30
2018-07-03T20:15:43.209Z,2.00
2018-07-03T20:18:12.478Z,2.25
2018-07-03T20:20:40.949Z,2.45
2018-07-03T20:23:09.424Z,2.37
2018-07-03T20:25:38.272Z,2.80
2018-07-03T20:28:07.098Z,2.17
2018-07-03T20:30:35.524Z,2.62
2018-07-03T20:33:04.006Z,2.92
2018-07-03T20:35:32.458Z,2.33
2018-07-03T20:38:03.121Z,2.10
2018-07-03T20:40:43.380Z,2.10
2018-07-03T20:43:11.855Z,2.35
2018-07-03T20:45:40.329Z,2.33
2018-07-03T20:48:08.801Z,2.15
2018-07-03T20:50:37.257Z,2.37
2018-07-03T20:53:06.012Z,2.37
2018-07-03T20:55:34.469Z,2.35
2018-07-03T20:58:02.933Z,2.55
2018-07-03T21:00:31.390Z,3.12
2018-07-03T21:02:59.853Z,2.50
2018-07-03T21:05:28.285Z,2.05
2018-07-03T21:07:56.773Z,1.75
2018-07-03T21:10:25.241Z,2.20
2018-07-03T21:12:53.713Z,2.02
2018-07-03T21:15:22.231Z,2.92
2018-07-03T21:17:50.696Z,2.22
2018-07-03T21:20:19.357Z,2.10
2018-07-03T21:22:47.927Z,2.25
2018-07-03T21:25:16.394Z,2.10
2018-07-03T21:27:44.940Z,2.22
2018-07-03T21:30:13.991Z,1.92
2018-07-03T21:32:43.006Z,2.02
2018-07-03T21:35:11.497Z,2.15
2018-07-03T21:37:39.966Z,2.35
2018-07-03T21:40:08.460Z,2.17
2018-07-03T21:42:37.369Z,2.50
2018-07-03T21:45:06.081Z,2.40
2018-07-03T21:47:34.540Z,2.70
2018-07-03T21:50:03.117Z,2.42
2018-07-03T21:52:31.604Z,2.42
2018-07-03T21:55:00.084Z,2.40
2018-07-03T21:57:28.553Z,2.62
2018-07-03T21:59:56.967Z,2.72
2018-07-03T22:02:25.425Z,2.60
2018-07-03T22:04:53.849Z,2.27
2018-07-03T22:07:22.314Z,2.50
2018-07-03T22:09:50.737Z,2.42
2018-07-03T22:12:19.185Z,2.37
2018-07-03T22:14:47.630Z,2.62
2018-07-03T22:17:16.296Z,2.90
2018-07-03T22:19:44.721Z,2.50
2018-07-03T22:22:13.201Z,2.58
2018-07-03T22:24:41.694Z,3.15
2018-07-03T22:27:10.141Z,2.25
2018-07-03T22:29:38.617Z,2.17
2018-07-03T22:32:07.041Z,2.37
2018-07-03T22:34:35.505Z,2.08
2018-07-03T22:37:03.692Z,2.70
2018-07-03T22:39:32.146Z,2.20
2018-07-03T22:42:00.573Z,2.30
2018-07-03T22:44:29.041Z,2.40
2018-07-03T22:46:57.448Z,2.25
2018-07-03T22:49:25.923Z,2.02
2018-07-03T22:51:54.377Z,1.60
2018-07-03T22:54:22.879Z,2.10
2018-07-03T22:56:51.480Z,2.37
2018-07-03T22:59:19.945Z,2.00
2018-07-03T23:01:48.386Z,2.20
2018-07-03T23:04:16.856Z,2.08
2018-07-03T23:06:45.289Z,2.17
2018-07-03T23:09:13.743Z,2.27
2018-07-03T23:11:42.181Z,2.42
2018-07-03T23:14:10.638Z,2.58
2018-07-03T23:16:39.060Z,2.00
2018-07-03T23:19:07.535Z,2.50
2018-07-03T23:21:35.981Z,3.27
2018-07-03T23:24:04.460Z,2.22
2018-07-03T23:26:32.891Z,2.15
2018-07-03T23:29:01.349Z,2.20
2018-07-03T23:31:29.792Z,1.90
2018-07-03T23:33:58.260Z,2.20
2018-07-03T23:36:26.709Z,2.83
2018-07-03T23:38:55.174Z,1.92
2018-07-03T23:41:23.593Z,2.02
2018-07-03T23:43:52.038Z,2.40
2018-07-03T23:46:31.817Z,2.00
2018-07-03T23:49:11.621Z,2.35
2018-07-03T23:51:51.212Z,2.00
2018-07-03T23:54:30.961Z,2.12
2018-07-03T23:57:10.660Z,2.15
2018-07-03T23:59:50.545Z,2.05
